Time;durP1;ratioP1;P1;durP2;ratioP2;P2;SDS_P1;SDS_P2;PMS_P1;PMS_P2;Temp;Humidity;BMP_temperature;BMP_pressure;BME280_temperature;BME280_humidity;BME280_pressure;Samples;Min_cycle;Max_cycle;Signal;HPM_P1;HPM_P2
2023/07/12 00:00:41;;;;;;;7.40;2.40;;;27.00;82.00;;;;;;5081830;28;20145;-61
2023/07/12 00:03:07;;;;;;;6.75;2.45;;;27.00;81.80;;;;;;5074836;28;20076;-61
2023/07/12 00:05:33;;;;;;;5.68;2.47;;;27.00;81.80;;;;;;5092753;28;20101;-63
2023/07/12 00:07:59;;;;;;;5.30;2.30;;;26.90;81.70;;;;;;5094050;28;20040;-67
2023/07/12 00:10:28;;;;;;;6.05;2.47;;;26.90;81.80;;;;;;5093263;28;20052;-60
2023/07/12 00:12:54;;;;;;;5.68;2.42;;;26.70;81.90;;;;;;5094491;28;20051;-60
2023/07/12 00:15:30;;;;;;;4.63;2.13;;;26.80;81.80;;;;;;5093646;28;20040;-59
2023/07/12 00:17:57;;;;;;;5.20;2.20;;;26.80;82.20;;;;;;5091673;28;20040;-62
2023/07/12 00:20:34;;;;;;;5.53;2.03;;;26.80;82.00;;;;;;5092639;28;20106;-60
2023/07/12 00:23:00;;;;;;;6.20;2.05;;;26.70;80.70;;;;;;5093689;28;20072;-64
2023/07/12 00:25:31;;;;;;;5.75;2.10;;;27.10;82.10;;;;;;5092855;28;20036;-60
2023/07/12 00:27:57;;;;;;;5.47;2.08;;;26.90;82.30;;;;;;5093637;28;20127;-64
2023/07/12 00:30:34;;;;;;;4.82;1.90;;;26.80;81.90;;;;;;5093123;28;20115;-68
2023/07/12 00:33:03;;;;;;;4.93;1.98;;;26.80;82.40;;;;;;5075351;28;20055;-61
2023/07/12 00:35:30;;;;;;;6.63;2.17;;;26.80;82.00;;;;;;5083391;28;20071;-59
2023/07/12 00:37:57;;;;;;;4.90;2.00;;;26.90;82.20;;;;;;5060650;28;20040;-68
2023/07/12 00:40:38;;;;;;;4.90;2.10;;;26.80;82.20;;;;;;5093451;28;20040;-68
2023/07/12 00:43:43;;;;;;;6.00;2.20;;;26.90;82.10;;;;;;5073597;28;20088;-59
2023/07/12 00:46:30;;;;;;;4.30;1.83;;;26.70;82.60;;;;;;5091273;28;20047;-59
2023/07/12 00:48:56;;;;;;;5.50;2.30;;;26.80;81.10;;;;;;5076647;28;20044;-66
2023/07/12 00:51:28;;;;;;;4.45;1.90;;;26.80;81.90;;;;;;5084657;28;20114;-66
2023/07/12 00:53:57;;;;;;;5.10;2.25;;;26.90;82.20;;;;;;5076165;28;20079;-68
2023/07/12 00:56:23;;;;;;;4.93;2.08;;;26.80;82.50;;;;;;5074577;28;20043;-68
2023/07/12 00:58:57;;;;;;;3.95;1.75;;;27.10;82.60;;;;;;5093642;28;20463;-61
2023/07/12 01:01:26;;;;;;;4.20;1.98;;;26.80;80.90;;;;;;5076506;28;20048;-60
2023/07/12 01:03:52;;;;;;;4.57;1.70;;;26.90;82.20;;;;;;5093025;28;20374;-68
2023/07/12 01:06:18;;;;;;;5.88;2.20;;;27.00;82.20;;;;;;5075661;28;20047;-62
2023/07/12 01:08:43;;;;;;;4.97;1.90;;;26.70;82.00;;;;;;5081572;28;20173;-68
2023/07/12 01:11:13;;;;;;;6.70;2.10;;;26.80;82.10;;;;;;5055473;28;20044;-68
2023/07/12 01:13:43;;;;;;;5.50;2.22;;;26.80;82.50;;;;;;5058294;28;20459;-67
2023/07/12 01:16:13;;;;;;;5.25;2.05;;;26.90;82.60;;;;;;5093251;28;20056;-69
2023/07/12 01:18:39;;;;;;;4.05;2.00;;;27.00;82.50;;;;;;5075779;28;20097;-68
2023/07/12 01:21:07;;;;;;;4.30;2.00;;;26.60;82.00;;;;;;5091472;28;20059;-68
2023/07/12 01:23:33;;;;;;;5.07;2.20;;;26.90;81.00;;;;;;5091492;28;20036;-68
2023/07/12 01:26:16;;;;;;;4.93;2.00;;;26.70;82.10;;;;;;5087048;28;20096;-68
2023/07/12 01:28:42;;;;;;;4.30;2.05;;;26.80;82.70;;;;;;5091566;28;20043;-68
2023/07/12 01:31:08;;;;;;;4.28;1.75;;;26.90;82.30;;;;;;5092075;28;20123;-67
2023/07/12 01:33:34;;;;;;;6.32;1.83;;;26.60;82.10;;;;;;5091717;28;20120;-68
2023/07/12 01:35:59;;;;;;;4.70;2.05;;;26.70;82.20;;;;;;5091223;28;20040;-67
2023/07/12 01:38:25;;;;;;;4.65;1.75;;;26.60;82.00;;;;;;5089667;28;20044;-68
2023/07/12 01:40:51;;;;;;;3.97;1.83;;;26.60;82.00;;;;;;5089791;28;20052;-68
2023/07/12 01:43:17;;;;;;;4.60;1.73;;;26.70;82.00;;;;;;5091375;28;20043;-68
2023/07/12 01:45:42;;;;;;;4.75;1.90;;;26.70;82.20;;;;;;5090399;28;20044;-67
2023/07/12 01:48:08;;;;;;;5.25;1.70;;;26.80;82.30;;;;;;5073306;28;20101;-68
2023/07/12 01:50:34;;;;;;;4.43;1.70;;;26.70;82.20;;;;;;5091344;28;20141;-68
2023/07/12 01:53:00;;;;;;;4.50;1.75;;;26.70;82.10;;;;;;5091905;28;20385;-68
2023/07/12 01:55:25;;;;;;;5.25;1.80;;;26.90;82.30;;;;;;5091598;28;20481;-68
2023/07/12 01:57:51;;;;;;;4.47;1.80;;;26.70;82.10;;;;;;5091436;28;20449;-67
2023/07/12 02:00:17;;;;;;;4.28;1.80;;;26.70;82.30;;;;;;5075752;28;20379;-67
2023/07/12 02:02:43;;;;;;;5.68;2.20;;;26.90;82.40;;;;;;5082548;28;20051;-67
2023/07/12 02:05:08;;;;;;;6.93;1.83;;;26.60;82.10;;;;;;5090711;28;20039;-67
2023/07/12 02:07:34;;;;;;;3.55;1.83;;;27.00;82.40;;;;;;5096318;28;20040;-68
2023/07/12 02:10:09;;;;;;;4.63;2.00;;;26.70;82.30;;;;;;5113245;28;20050;-68
2023/07/12 02:12:35;;;;;;;6.57;1.60;;;26.60;82.70;;;;;;5082474;28;20040;-68
2023/07/12 02:15:00;;;;;;;7.63;1.90;;;26.70;82.20;;;;;;5091645;28;20051;-67
2023/07/12 02:17:26;;;;;;;4.43;1.83;;;26.80;82.40;;;;;;5086161;28;20044;-68
2023/07/12 02:19:52;;;;;;;4.40;1.80;;;26.70;82.30;;;;;;5092165;28;20101;-68
2023/07/12 02:22:18;;;;;;;5.18;2.08;;;26.70;82.40;;;;;;5092393;28;20047;-67
2023/07/12 02:24:44;;;;;;;5.93;1.88;;;26.60;82.20;;;;;;5094202;28;20044;-65
2023/07/12 02:27:09;;;;;;;4.93;2.08;;;26.70;82.30;;;;;;5097083;28;20044;-60
2023/07/12 02:29:35;;;;;;;4.53;1.80;;;26.70;82.20;;;;;;5097674;28;20036;-65
2023/07/12 02:32:01;;;;;;;5.50;1.90;;;26.70;82.20;;;;;;5096163;28;20493;-63
2023/07/12 02:34:27;;;;;;;4.00;1.88;;;26.80;82.20;;;;;;5079102;28;20138;-59
2023/07/12 02:36:52;;;;;;;6.10;2.00;;;26.70;82.30;;;;;;5095385;28;20500;-66
2023/07/12 02:39:18;;;;;;;5.97;2.03;;;26.50;82.30;;;;;;5093933;28;20040;-67
2023/07/12 02:41:44;;;;;;;4.90;2.00;;;26.40;82.10;;;;;;5094558;28;20066;-68
2023/07/12 02:44:11;;;;;;;5.93;2.10;;;26.60;82.10;;;;;;5095712;28;20166;-68
2023/07/12 02:46:36;;;;;;;5.85;2.13;;;26.70;82.60;;;;;;5092581;28;20051;-68
2023/07/12 02:49:02;;;;;;;6.43;1.90;;;26.70;82.30;;;;;;5095164;28;20036;-68
2023/07/12 02:51:28;;;;;;;4.05;1.90;;;26.90;82.40;;;;;;5093939;28;20114;-67
2023/07/12 02:53:54;;;;;;;6.90;2.05;;;26.90;82.40;;;;;;5076558;28;20769;-68
2023/07/12 02:56:19;;;;;;;6.40;2.03;;;26.50;82.20;;;;;;5094664;28;20093;-67
2023/07/12 02:58:45;;;;;;;5.85;2.03;;;26.40;82.00;;;;;;5095116;28;20043;-67
2023/07/12 03:01:11;;;;;;;4.88;1.90;;;26.70;82.30;;;;;;5095628;28;20051;-68
2023/07/12 03:03:37;;;;;;;5.00;1.90;;;26.80;82.40;;;;;;5095509;28;20489;-68
2023/07/12 03:06:07;;;;;;;5.40;2.00;;;26.50;82.20;;;;;;5094114;28;20109;-68
2023/07/12 03:08:32;;;;;;;6.85;2.22;;;26.40;80.90;;;;;;5093952;28;20924;-68
2023/07/12 03:10:59;;;;;;;5.28;2.03;;;26.40;82.20;;;;;;5093960;28;20556;-68
2023/07/12 03:13:24;;;;;;;5.15;1.98;;;26.60;82.30;;;;;;5094351;28;20473;-59
2023/07/12 03:15:50;;;;;;;4.60;1.75;;;26.40;82.20;;;;;;5093346;28;20058;-68
2023/07/12 03:18:16;;;;;;;6.45;1.95;;;26.70;82.40;;;;;;5093819;28;20044;-67
2023/07/12 03:20:42;;;;;;;6.22;1.83;;;26.40;82.20;;;;;;5094974;28;20044;-67
2023/07/12 03:23:07;;;;;;;4.28;1.90;;;26.70;82.40;;;;;;5095015;28;20096;-67
2023/07/12 03:25:33;;;;;;;8.50;2.20;;;26.50;82.20;;;;;;5093849;28;20044;-68
2023/07/12 03:27:59;;;;;;;7.07;2.25;;;26.50;82.20;;;;;;5094712;28;20100;-67
2023/07/12 03:30:25;;;;;;;5.55;2.05;;;26.50;82.30;;;;;;5094147;28;20036;-68
2023/07/12 03:32:51;;;;;;;6.43;2.10;;;26.40;82.30;;;;;;5094925;28;20163;-67
2023/07/12 03:35:16;;;;;;;8.50;2.20;;;26.70;82.40;;;;;;5094415;28;20036;-67
2023/07/12 03:37:43;;;;;;;7.18;2.10;;;26.40;82.20;;;;;;5093688;28;20170;-67
2023/07/12 03:40:09;;;;;;;8.18;2.30;;;26.60;82.50;;;;;;5093564;28;20545;-68
2023/07/12 03:42:35;;;;;;;4.60;1.90;;;26.80;82.30;;;;;;5089989;28;20197;-67
2023/07/12 03:45:01;;;;;;;5.65;2.20;;;26.60;82.00;;;;;;5063667;28;20405;-65
2023/07/12 03:47:27;;;;;;;7.82;2.38;;;26.50;82.00;;;;;;5071014;28;20048;-60
2023/07/12 03:49:53;;;;;;;8.00;2.35;;;26.50;82.30;;;;;;5093190;28;20055;-64
2023/07/12 03:52:20;;;;;;;6.82;2.28;;;26.60;82.40;;;;;;5093820;28;20044;-68
2023/07/12 03:54:45;;;;;;;7.72;2.10;;;26.80;85.90;;;;;;5094460;28;20044;-67
2023/07/12 03:57:11;;;;;;;5.72;2.10;;;26.40;82.20;;;;;;5075203;28;20054;-67
2023/07/12 03:59:37;;;;;;;4.68;1.77;;;26.40;82.20;;;;;;5093398;28;20040;-68
2023/07/12 04:02:03;;;;;;;3.95;1.90;;;26.50;82.20;;;;;;5093197;28;20097;-68
2023/07/12 04:04:28;;;;;;;4.43;1.83;;;26.80;82.20;;;;;;5094005;28;20042;-68
2023/07/12 04:06:54;;;;;;;7.63;2.30;;;26.30;81.90;;;;;;5092035;28;20363;-60
2023/07/12 04:09:20;;;;;;;5.43;2.15;;;26.40;81.90;;;;;;5094836;28;20048;-64
2023/07/12 04:11:46;;;;;;;7.50;2.20;;;26.40;82.00;;;;;;5094827;28;20032;-61
2023/07/12 04:14:12;;;;;;;5.47;2.20;;;26.60;82.20;;;;;;5093933;28;20040;-60
2023/07/12 04:16:37;;;;;;;7.00;2.20;;;26.50;82.10;;;;;;5093254;28;20047;-60
2023/07/12 04:19:03;;;;;;;7.13;2.33;;;26.60;82.20;;;;;;5093953;28;20385;-67
2023/07/12 04:21:29;;;;;;;6.15;2.20;;;26.30;81.90;;;;;;5094357;28;20501;-60
2023/07/12 04:23:55;;;;;;;5.93;2.20;;;26.20;81.80;;;;;;5094022;28;20072;-60
2023/07/12 04:26:21;;;;;;;7.72;2.30;;;26.70;82.30;;;;;;5089251;28;20474;-66
2023/07/12 04:28:49;;;;;;;5.68;2.30;;;26.40;82.10;;;;;;5089059;28;20047;-63
2023/07/12 04:31:16;;;;;;;7.82;2.45;;;26.20;82.10;;;;;;5093778;28;20051;-66
2023/07/12 04:33:42;;;;;;;5.95;2.40;;;26.50;82.40;;;;;;5087003;28;20040;-64
2023/07/12 04:36:09;;;;;;;6.57;2.30;;;26.50;82.10;;;;;;5093770;28;20048;-59
2023/07/12 04:38:35;;;;;;;9.57;2.80;;;26.60;82.40;;;;;;5093312;28;20389;-59
2023/07/12 04:41:01;;;;;;;6.15;2.20;;;26.40;82.00;;;;;;5092136;28;20056;-60
2023/07/12 04:43:27;;;;;;;7.50;2.80;;;26.20;81.80;;;;;;5093387;28;20055;-61
2023/07/12 04:45:53;;;;;;;7.30;2.30;;;26.20;81.60;;;;;;5091651;28;20127;-63
2023/07/12 04:48:19;;;;;;;9.73;2.70;;;26.40;81.90;;;;;;5090797;28;20075;-64
2023/07/12 04:50:45;;;;;;;7.40;2.75;;;26.50;82.10;;;;;;5073449;28;20052;-61
2023/07/12 04:53:12;;;;;;;9.98;2.40;;;26.20;81.80;;;;;;5074525;28;20046;-67
2023/07/12 04:55:38;;;;;;;7.60;2.50;;;26.20;82.10;;;;;;5092759;28;20040;-67
2023/07/12 04:58:04;;;;;;;6.50;2.38;;;26.30;82.20;;;;;;5093387;28;20055;-61
2023/07/12 05:00:30;;;;;;;7.78;2.53;;;26.50;82.20;;;;;;5092498;28;20043;-67
2023/07/12 05:02:55;;;;;;;5.82;2.55;;;26.20;82.00;;;;;;5092571;28;20507;-67
2023/07/12 05:05:21;;;;;;;6.50;2.40;;;26.50;82.20;;;;;;5090631;28;20097;-64
2023/07/12 05:07:50;;;;;;;8.48;2.47;;;26.50;82.20;;;;;;5093388;28;20473;-60
2023/07/12 05:10:16;;;;;;;8.35;2.95;;;26.40;81.20;;;;;;5091811;28;20044;-66
2023/07/12 05:12:42;;;;;;;6.22;2.63;;;26.30;82.00;;;;;;5092432;28;20043;-59
2023/07/12 05:15:08;;;;;;;7.60;2.88;;;26.20;81.90;;;;;;5092958;28;20104;-61
2023/07/12 05:17:34;;;;;;;6.95;2.75;;;26.30;82.30;;;;;;5091098;28;20048;-62
2023/07/12 05:20:01;;;;;;;6.90;2.90;;;26.20;82.00;;;;;;5090563;28;20051;-66
2023/07/12 05:22:26;;;;;;;8.40;2.67;;;26.40;82.40;;;;;;5091093;28;20039;-67
2023/07/12 05:24:52;;;;;;;5.28;2.25;;;26.20;82.00;;;;;;5090981;28;20058;-67
2023/07/12 05:27:18;;;;;;;6.82;2.60;;;26.20;82.00;;;;;;5092334;28;20046;-68
2023/07/12 05:29:44;;;;;;;7.20;2.33;;;26.30;82.00;;;;;;5091018;28;20040;-67
2023/07/12 05:32:10;;;;;;;5.35;2.40;;;26.10;82.00;;;;;;5090134;28;20047;-65
2023/07/12 05:34:36;;;;;;;7.30;2.30;;;26.10;82.00;;;;;;5091783;28;20051;-66
2023/07/12 05:37:03;;;;;;;9.48;2.58;;;26.20;81.90;;;;;;5091312;28;20044;-67
2023/07/12 05:39:30;;;;;;;9.48;2.60;;;26.20;82.00;;;;;;5089550;28;20044;-64
2023/07/12 05:41:56;;;;;;;5.15;2.45;;;26.10;81.70;;;;;;5092029;28;20066;-60
2023/07/12 05:44:22;;;;;;;7.63;2.42;;;26.20;81.70;;;;;;5091266;28;20036;-59
2023/07/12 05:46:48;;;;;;;6.85;2.58;;;26.50;81.60;;;;;;5091775;28;20457;-66
2023/07/12 05:49:15;;;;;;;6.80;2.58;;;26.40;81.90;;;;;;5091123;28;20363;-60
2023/07/12 05:51:40;;;;;;;8.13;2.97;;;26.20;81.30;;;;;;5073451;28;20048;-59
2023/07/12 05:54:06;;;;;;;6.50;2.72;;;26.20;81.90;;;;;;5092078;28;20090;-68
2023/07/12 05:56:32;;;;;;;6.32;2.47;;;26.20;81.90;;;;;;5089840;28;20040;-60
2023/07/12 05:58:58;;;;;;;8.40;2.60;;;26.40;81.70;;;;;;5084819;28;20048;-59
2023/07/12 06:01:26;;;;;;;7.40;2.42;;;26.30;81.90;;;;;;5092716;28;20055;-65
2023/07/12 06:03:52;;;;;;;7.85;2.63;;;26.30;81.90;;;;;;5091892;28;20056;-66
2023/07/12 06:06:18;;;;;;;6.88;2.60;;;26.30;81.90;;;;;;5091763;28;20093;-62
2023/07/12 06:08:44;;;;;;;6.82;2.28;;;26.40;81.90;;;;;;5091437;28;20040;-67
2023/07/12 06:11:10;;;;;;;7.95;2.40;;;26.20;81.80;;;;;;5091800;28;20048;-67
2023/07/12 06:13:36;;;;;;;6.93;2.65;;;26.30;81.40;;;;;;5089839;28;20065;-67
2023/07/12 06:16:02;;;;;;;6.88;2.30;;;26.60;81.50;;;;;;5085033;28;20100;-70
2023/07/12 06:18:30;;;;;;;5.82;2.35;;;26.70;81.40;;;;;;5092336;28;20052;-60
2023/07/12 06:21:00;;;;;;;6.68;2.85;;;26.70;81.40;;;;;;5091704;28;20082;-63
2023/07/12 06:23:26;;;;;;;6.93;2.63;;;26.90;81.80;;;;;;5090101;28;20044;-66
2023/07/12 06:25:55;;;;;;;9.40;2.63;;;26.80;81.40;;;;;;5087170;28;20047;-66
2023/07/12 06:28:21;;;;;;;6.57;2.50;;;26.50;81.40;;;;;;5085714;28;20068;-67
2023/07/12 06:30:46;;;;;;;6.07;2.90;;;26.60;81.10;;;;;;5086575;28;20051;-66
2023/07/12 06:33:12;;;;;;;4.57;2.30;;;26.50;81.00;;;;;;5090272;28;20032;-66
2023/07/12 06:35:39;;;;;;;9.88;2.97;;;26.80;81.20;;;;;;5092177;28;20048;-64
2023/07/12 06:38:05;;;;;;;5.88;2.53;;;26.60;81.20;;;;;;5092593;28;20058;-64
2023/07/12 06:40:31;;;;;;;7.00;2.42;;;26.50;80.90;;;;;;5090685;28;20036;-67
2023/07/12 06:42:57;;;;;;;8.65;2.65;;;26.60;80.50;;;;;;5073448;28;20151;-61
2023/07/12 06:45:23;;;;;;;7.63;2.95;;;26.70;80.70;;;;;;5074001;28;20463;-60
2023/07/12 06:47:49;;;;;;;6.65;2.60;;;26.80;80.50;;;;;;5090494;28;20046;-65
2023/07/12 06:50:14;;;;;;;8.35;2.70;;;26.90;80.40;;;;;;5087760;28;20131;-66
2023/07/12 06:52:40;;;;;;;6.28;2.28;;;27.00;80.60;;;;;;5092602;28;20145;-64
2023/07/12 06:55:06;;;;;;;8.05;2.78;;;27.00;80.70;;;;;;5092527;28;20040;-62
2023/07/12 06:57:33;;;;;;;6.93;2.72;;;27.10;80.20;;;;;;5092399;28;20040;-66
2023/07/12 07:00:04;;;;;;;7.10;2.88;;;27.20;80.60;;;;;;5088831;28;20040;-65
2023/07/12 07:02:30;;;;;;;8.95;2.67;;;27.40;80.60;;;;;;5090183;28;20040;-59
2023/07/12 07:04:55;;;;;;;7.95;2.58;;;27.30;80.20;;;;;;5090984;28;20400;-60
2023/07/12 07:07:21;;;;;;;7.65;2.90;;;27.10;80.00;;;;;;5091426;28;20042;-63
2023/07/12 07:09:47;;;;;;;9.02;2.83;;;26.90;79.90;;;;;;5092115;28;20087;-61
2023/07/12 07:12:13;;;;;;;5.35;2.50;;;27.20;80.00;;;;;;5093755;28;20036;-59
2023/07/12 07:14:39;;;;;;;8.15;2.80;;;27.00;79.80;;;;;;5093627;28;20046;-66
2023/07/12 07:17:07;;;;;;;6.82;2.65;;;27.40;80.10;;;;;;5093712;28;20058;-65
2023/07/12 07:19:39;;;;;;;6.97;2.65;;;27.50;80.00;;;;;;5094785;28;20040;-66
2023/07/12 07:22:14;;;;;;;7.68;3.17;;;27.40;78.40;;;;;;5091888;28;20044;-67
2023/07/12 07:24:51;;;;;;;8.15;3.05;;;27.70;78.60;;;;;;5099461;28;20048;-67
2023/07/12 07:27:31;;;;;;;6.88;2.95;;;27.70;78.40;;;;;;5059377;28;20056;-67
2023/07/12 07:31:03;;;;;;;9.73;3.30;;;27.80;78.20;;;;;;5091600;28;20166;-66
2023/07/12 07:34:28;;;;;;;8.80;3.08;;;27.90;78.10;;;;;;5064958;28;20046;-66
2023/07/12 07:38:27;;;;;;;6.68;3.00;;;27.80;77.50;;;;;;5095003;28;20101;-70
2023/07/12 07:41:58;;;;;;;7.03;3.00;;;27.80;77.40;;;;;;5080691;28;20085;-65
2023/07/12 07:44:27;;;;;;;12.45;4.10;;;27.90;77.40;;;;;;5091666;28;20590;-65
2023/07/12 07:46:53;;;;;;;12.30;4.53;;;28.00;78.60;;;;;;5093768;28;20044;-65
2023/07/12 07:49:19;;;;;;;11.07;3.92;;;27.90;77.90;;;;;;5076392;28;20055;-65
2023/07/12 07:51:49;;;;;;;14.35;3.92;;;27.70;77.70;;;;;;5095315;28;20043;-59
2023/07/12 07:54:20;;;;;;;12.50;3.67;;;27.60;76.70;;;;;;5077000;28;20052;-64
2023/07/12 07:56:51;;;;;;;11.68;3.90;;;27.40;76.70;;;;;;5090363;28;20040;-60
2023/07/12 07:59:23;;;;;;;9.73;3.67;;;27.40;76.80;;;;;;5073421;28;20032;-63
2023/07/12 08:01:55;;;;;;;10.90;3.97;;;27.00;77.10;;;;;;5073628;28;20048;-60
2023/07/12 08:04:25;;;;;;;9.60;3.45;;;27.00;77.30;;;;;;5074784;28;20040;-64
2023/07/12 08:07:02;;;;;;;11.38;3.90;;;27.00;78.10;;;;;;5091907;28;20101;-62
2023/07/12 08:09:40;;;;;;;9.32;3.63;;;26.70;77.40;;;;;;5089726;28;20093;-64
2023/07/12 08:12:12;;;;;;;11.50;3.72;;;26.70;77.40;;;;;;5093428;28;20046;-62
2023/07/12 08:14:40;;;;;;;13.70;3.88;;;26.80;77.20;;;;;;5076872;28;20056;-63
2023/07/12 08:17:07;;;;;;;12.90;4.20;;;26.80;78.10;;;;;;5094439;28;20489;-75
2023/07/12 08:19:38;;;;;;;12.45;4.20;;;26.60;78.10;;;;;;5092747;28;20044;-60
2023/07/12 08:22:07;;;;;;;12.07;4.10;;;26.50;78.10;;;;;;5091683;28;20040;-60
2023/07/12 08:24:35;;;;;;;7.75;3.45;;;26.40;79.10;;;;;;5092126;28;20371;-64
2023/07/12 08:27:03;;;;;;;8.98;4.35;;;26.00;78.40;;;;;;5076175;28;20052;-70
2023/07/12 08:29:29;;;;;;;13.27;4.72;;;26.10;79.30;;;;;;5071678;28;20138;-59
2023/07/12 08:32:00;;;;;;;11.50;4.15;;;25.90;80.00;;;;;;5064644;28;20101;-65
2023/07/12 08:34:28;;;;;;;11.00;4.13;;;25.90;79.40;;;;;;5094061;28;20044;-62
2023/07/12 08:36:55;;;;;;;10.15;4.10;;;25.60;80.70;;;;;;5093863;28;20047;-70
2023/07/12 08:39:21;;;;;;;10.52;3.90;;;25.70;81.20;;;;;;5093226;28;20048;-75
2023/07/12 08:41:47;;;;;;;10.13;3.40;;;25.80;81.40;;;;;;5071576;28;20379;-76
2023/07/12 08:44:14;;;;;;;11.75;4.13;;;26.00;84.90;;;;;;5089589;28;20185;-67
2023/07/12 08:46:48;;;;;;;9.13;3.60;;;25.90;81.50;;;;;;5072249;28;20064;-62
2023/07/12 08:49:15;;;;;;;11.23;4.10;;;25.70;81.70;;;;;;5073601;28;20052;-63
2023/07/12 08:51:42;;;;;;;9.30;3.55;;;25.80;81.30;;;;;;5074113;28;20482;-71
2023/07/12 08:54:19;;;;;;;10.82;4.10;;;25.70;81.40;;;;;;5074307;28;20040;-73
2023/07/12 08:56:44;;;;;;;10.93;3.97;;;25.80;81.80;;;;;;5076877;28;20056;-75
2023/07/12 08:59:11;;;;;;;10.02;4.05;;;26.10;81.60;;;;;;5074452;28;20036;-66
2023/07/12 09:01:51;;;;;;;13.88;4.55;;;26.00;81.90;;;;;;5056951;28;20405;-61
2023/07/12 09:04:21;;;;;;;11.15;3.92;;;26.10;80.80;;;;;;5064244;28;20043;-71
2023/07/12 09:06:46;;;;;;;9.63;3.78;;;26.10;81.70;;;;;;5088071;28;20048;-76
2023/07/12 09:09:12;;;;;;;12.15;4.05;;;26.30;81.10;;;;;;5086388;28;20102;-60
2023/07/12 09:11:39;;;;;;;9.98;3.83;;;26.50;81.10;;;;;;5079667;28;20044;-62
2023/07/12 09:14:05;;;;;;;10.27;3.80;;;26.40;80.80;;;;;;5077423;28;20040;-66
2023/07/12 09:16:33;;;;;;;8.48;3.53;;;26.30;80.80;;;;;;5084184;28;20386;-60
2023/07/12 09:19:11;;;;;;;7.00;3.33;;;26.30;80.50;;;;;;5082473;28;20040;-73
2023/07/12 09:21:38;;;;;;;8.38;3.08;;;26.10;80.20;;;;;;5079225;28;20048;-62
2023/07/12 09:24:11;;;;;;;8.57;3.45;;;26.20;80.20;;;;;;5084383;28;20048;-72
2023/07/12 09:26:37;;;;;;;9.85;3.63;;;26.10;80.30;;;;;;5052701;28;20037;-63
2023/07/12 09:29:08;;;;;;;13.23;4.10;;;26.00;80.40;;;;;;5089486;28;20043;-66
2023/07/12 09:31:35;;;;;;;8.23;3.80;;;25.80;81.60;;;;;;5089351;28;20047;-64
2023/07/12 09:34:05;;;;;;;10.63;3.90;;;25.40;81.60;;;;;;5087119;28;20073;-64
2023/07/12 09:36:35;;;;;;;9.68;3.90;;;25.60;82.30;;;;;;5087205;28;20044;-61
2023/07/12 09:39:03;;;;;;;9.88;3.80;;;25.50;81.00;;;;;;5066262;28;20100;-63
2023/07/12 09:41:30;;;;;;;11.43;3.90;;;25.40;83.00;;;;;;5085381;28;20048;-64
2023/07/12 09:43:58;;;;;;;11.60;4.15;;;25.50;82.80;;;;;;5084525;28;20051;-66
2023/07/12 09:46:32;;;;;;;9.15;3.58;;;25.30;83.20;;;;;;5072248;28;20047;-61
2023/07/12 09:49:03;;;;;;;11.32;3.42;;;25.10;82.50;;;;;;5085112;28;20174;-62
2023/07/12 09:51:48;;;;;;;8.80;3.58;;;25.20;84.30;;;;;;5049766;28;20071;-64
2023/07/12 09:54:32;;;;;;;11.65;3.92;;;25.10;83.10;;;;;;5082876;28;20051;-68
2023/07/12 09:57:07;;;;;;;8.32;3.67;;;25.60;84.10;;;;;;5085690;28;20628;-66
2023/07/12 09:59:48;;;;;;;9.15;4.32;;;25.40;83.20;;;;;;5073262;28;20359;-64
2023/07/12 10:02:40;;;;;;;10.18;4.03;;;25.60;83.10;;;;;;5069004;28;20052;-72
2023/07/12 10:05:11;;;;;;;11.13;3.90;;;25.70;83.10;;;;;;5086012;28;20052;-60
2023/07/12 10:07:53;;;;;;;12.60;4.22;;;25.60;84.60;;;;;;5073142;28;20051;-67
2023/07/12 10:10:45;;;;;;;11.45;4.57;;;25.50;83.50;;;;;;5089552;28;20047;-77
2023/07/12 10:13:19;;;;;;;10.95;4.00;;;25.70;84.00;;;;;;5070899;28;20047;-65
2023/07/12 10:15:45;;;;;;;7.20;3.30;;;25.40;83.20;;;;;;5090871;28;20546;-71
2023/07/12 10:18:23;;;;;;;12.60;3.80;;;25.00;84.20;;;;;;5057110;28;20083;-70
2023/07/12 10:20:49;;;;;;;18.98;4.38;;;25.20;85.30;;;;;;5071605;28;20040;-62
2023/07/12 10:23:15;;;;;;;13.60;3.92;;;25.10;89.40;;;;;;5084646;28;20051;-66
2023/07/12 10:25:45;;;;;;;10.27;3.65;;;25.10;85.80;;;;;;5065892;28;20032;-70
2023/07/12 10:28:45;;;;;;;8.60;3.40;;;24.80;89.10;;;;;;5047410;28;20094;-64
2023/07/12 10:31:31;;;;;;;9.10;3.00;;;24.90;85.70;;;;;;5088585;28;20135;-63
2023/07/12 10:34:19;;;;;;;6.18;2.90;;;24.80;85.70;;;;;;5071108;28;20052;-64
2023/07/12 10:36:47;;;;;;;8.32;3.08;;;24.80;86.00;;;;;;5055269;28;20048;-62
2023/07/12 10:39:13;;;;;;;6.28;3.35;;;24.80;90.30;;;;;;5085431;28;20155;-63
2023/07/12 10:41:46;;;;;;;10.35;3.42;;;24.50;86.90;;;;;;5086980;28;20135;-62
2023/07/12 10:44:20;;;;;;;15.50;2.90;;;24.60;90.60;;;;;;5088713;28;20060;-66
2023/07/12 10:46:55;;;;;;;8.30;2.95;;;24.80;88.20;;;;;;5069853;28;20098;-61
2023/07/12 10:49:36;;;;;;;7.88;2.95;;;24.70;90.40;;;;;;5072332;28;20094;-64
2023/07/12 10:52:18;;;;;;;6.28;2.65;;;24.80;88.00;;;;;;5087625;28;20040;-61
2023/07/12 10:55:20;;;;;;;7.40;3.03;;;24.90;87.80;;;;;;5087586;28;20040;-64
2023/07/12 10:57:51;;;;;;;7.90;3.33;;;24.90;86.60;;;;;;5084605;28;20036;-63
2023/07/12 11:00:18;;;;;;;8.27;3.17;;;25.10;87.30;;;;;;5093951;28;20036;-61
2023/07/12 11:03:09;;;;;;;6.25;2.58;;;25.10;86.80;;;;;;5090307;28;20055;-63
2023/07/12 11:05:47;;;;;;;8.43;3.25;;;25.10;86.30;;;;;;5065653;28;20056;-59
2023/07/12 11:08:36;;;;;;;9.35;3.40;;;25.40;85.80;;;;;;5074749;28;20044;-62
2023/07/12 11:11:11;;;;;;;8.10;3.15;;;25.10;86.00;;;;;;5090957;28;20036;-62
2023/07/12 11:13:46;;;;;;;8.70;3.08;;;25.40;85.80;;;;;;5093222;28;20084;-61
2023/07/12 11:16:19;;;;;;;7.03;2.70;;;25.30;85.10;;;;;;5094484;28;20044;-61
2023/07/12 11:18:54;;;;;;;7.57;2.93;;;25.70;85.00;;;;;;5073789;28;20049;-61
2023/07/12 11:21:43;;;;;;;7.72;2.88;;;25.60;85.70;;;;;;5090575;28;20454;-61
2023/07/12 11:24:28;;;;;;;18.70;3.13;;;25.50;86.40;;;;;;5090440;28;20033;-61
2023/07/12 11:27:01;;;;;;;9.18;2.92;;;25.70;85.90;;;;;;5093403;28;20464;-63
2023/07/12 11:29:32;;;;;;;5.30;2.58;;;25.50;85.40;;;;;;5093988;28;20079;-68
2023/07/12 11:32:09;;;;;;;;;;;25.90;85.60;;;;;;5088735;28;20043;-63
2023/07/12 11:34:41;;;;;;;6.68;2.70;;;26.00;83.80;;;;;;5089640;28;19946;-63
2023/07/12 11:37:42;;;;;;;6.53;2.50;;;26.00;83.40;;;;;;5088172;28;20516;-68
2023/07/12 11:40:25;;;;;;;4.72;2.42;;;26.00;83.50;;;;;;5087096;28;20040;-61
2023/07/12 11:42:52;;;;;;;4.80;2.10;;;26.10;84.70;;;;;;5083048;28;20545;-68
2023/07/12 11:45:24;;;;;;;6.22;2.22;;;26.10;83.60;;;;;;5082714;28;20052;-64
2023/07/12 11:47:53;;;;;;;8.35;2.78;;;26.50;83.40;;;;;;5087261;28;20048;-67
2023/07/12 11:50:23;;;;;;;10.45;3.08;;;26.40;83.20;;;;;;5085677;28;20076;-73
2023/07/12 11:52:49;;;;;;;9.98;2.88;;;26.20;82.80;;;;;;5094866;28;20123;-75
2023/07/12 11:55:21;;;;;;;8.75;2.83;;;26.10;82.20;;;;;;5078245;28;20144;-66
2023/07/12 11:57:49;;;;;;;7.40;2.75;;;26.40;81.50;;;;;;5062385;28;20124;-70
2023/07/12 12:00:17;;;;;;;6.40;2.33;;;26.30;81.40;;;;;;5082738;28;20072;-64
2023/07/12 12:02:58;;;;;;;6.07;2.00;;;26.60;81.20;;;;;;5094530;28;20105;-62
2023/07/12 12:05:33;;;;;;;7.68;2.80;;;26.40;79.30;;;;;;5092230;28;20044;-64
2023/07/12 12:08:03;;;;;;;5.88;2.20;;;26.20;79.90;;;;;;5090541;28;20124;-63
2023/07/12 12:10:34;;;;;;;5.90;2.38;;;26.30;80.90;;;;;;5092795;28;20045;-61
2023/07/12 12:13:00;;;;;;;6.50;2.40;;;26.40;80.70;;;;;;5091049;28;20040;-60
2023/07/12 12:15:30;;;;;;;7.57;2.30;;;26.40;79.60;;;;;;5093669;28;20044;-65
2023/07/12 12:17:57;;;;;;;6.13;2.20;;;26.40;79.90;;;;;;5094373;28;20484;-64
2023/07/12 12:20:29;;;;;;;5.65;2.00;;;26.40;79.40;;;;;;5092571;28;20067;-69
2023/07/12 12:23:11;;;;;;;7.82;2.58;;;26.50;78.30;;;;;;5094386;28;20440;-69
2023/07/12 12:25:46;;;;;;;6.63;2.00;;;26.30;78.00;;;;;;5077310;28;20040;-63
2023/07/12 12:28:32;;;;;;;5.30;2.03;;;26.30;77.70;;;;;;5070961;28;20044;-69
2023/07/12 12:31:00;;;;;;;4.80;2.20;;;26.50;77.10;;;;;;5091956;28;20044;-67
2023/07/12 12:33:28;;;;;;;5.80;2.00;;;26.40;78.20;;;;;;5089816;28;20044;-66
2023/07/12 12:35:59;;;;;;;10.13;2.03;;;26.50;76.60;;;;;;5090609;28;20367;-61
2023/07/12 12:38:31;;;;;;;6.60;2.13;;;26.40;77.30;;;;;;5076677;28;20040;-66
2023/07/12 12:41:15;;;;;;;4.80;1.90;;;26.80;75.80;;;;;;5083666;28;20440;-66
2023/07/12 12:44:17;;;;;;;7.78;2.17;;;26.50;75.20;;;;;;5089805;28;20153;-67
2023/07/12 12:46:44;;;;;;;3.30;1.63;;;26.60;77.60;;;;;;5089428;28;20056;-64
2023/07/12 12:49:23;;;;;;;4.32;1.80;;;26.60;77.00;;;;;;5091476;28;20492;-60
2023/07/12 12:51:50;;;;;;;4.18;1.70;;;26.40;74.90;;;;;;5093763;28;20048;-62
2023/07/12 12:54:16;;;;;;;5.30;1.92;;;26.30;76.40;;;;;;5092294;28;20040;-60
2023/07/12 12:56:42;;;;;;;3.83;1.50;;;26.20;76.30;;;;;;5093653;28;20044;-62
2023/07/12 12:59:13;;;;;;;4.40;1.63;;;26.30;76.30;;;;;;5092321;28;20075;-68
2023/07/12 13:01:39;;;;;;;3.50;1.60;;;26.80;76.60;;;;;;5090478;28;20057;-68